Airport details for: EIDL (Ireland)

Metar

EIDL 151930Z 35015KT 9999 SCT040 07/01 Q1016

General details

ICAO: EIDL
IATA: CFN
Name (city): Donegal
Major:
Country: Ireland
vACC: vACC Ireland
Description:
Scenery links:
FS9 scenery:
FSX/P3D scenery:
XP scenery:
Elevation: 30 ft.
Transition altitude: 5000 ft.
MSA: 4900 ft.
Latitude: 55.044167
Longitude: -8.341111
EIDL Charts
EIDL Notams
EIDL Online stations

Runways

Number Course Length Elevation Lat Lon ILS ILS freq ILS FAC GP
03 25° 4908ft / 1496 m 10ft 55.039656 -8.343936 - - 3.0°
21 205° 4908ft / 1496 m 30ft 55.049406 -8.337625 110.3 205° 0.0°